Time;durP1;ratioP1;P1;durP2;ratioP2;P2;SDS_P1;SDS_P2;PMS_P1;PMS_P2;Temp;Humidity;BMP_temperature;BMP_pressure;BME280_temperature;BME280_humidity;BME280_pressure;Samples;Min_cycle;Max_cycle;Signal;HPM_P1;HPM_P2
2023/07/19 00:00:42;;;;;;;3.10;2.20;;;16.70;99.90;;;;;;5035362;28;20527;-53
2023/07/19 00:03:08;;;;;;;3.13;2.10;;;16.60;99.90;;;;;;5039046;28;20116;-52
2023/07/19 00:05:33;;;;;;;4.13;2.35;;;16.50;99.90;;;;;;5042309;28;20033;-53
2023/07/19 00:08:01;;;;;;;4.93;2.17;;;16.50;99.90;;;;;;5035054;28;20735;-53
2023/07/19 00:10:27;;;;;;;5.22;2.28;;;16.50;99.90;;;;;;5042266;28;20116;-53
2023/07/19 00:12:53;;;;;;;8.18;2.08;;;16.40;99.90;;;;;;5038053;28;20461;-53
2023/07/19 00:15:19;;;;;;;5.53;2.30;;;16.40;99.90;;;;;;5032268;28;20044;-52
2023/07/19 00:17:44;;;;;;;6.45;2.55;;;16.50;99.90;;;;;;5034120;28;20523;-51
2023/07/19 00:20:11;;;;;;;8.18;2.58;;;16.50;99.90;;;;;;5032649;28;20106;-52
2023/07/19 00:22:38;;;;;;;4.97;2.20;;;16.40;99.90;;;;;;5034391;28;20048;-52
2023/07/19 00:25:04;;;;;;;4.50;2.60;;;16.40;99.90;;;;;;5040340;28;20042;-52
2023/07/19 00:27:30;;;;;;;5.22;3.20;;;16.40;99.90;;;;;;5045394;28;20064;-50
2023/07/19 00:29:56;;;;;;;6.80;3.03;;;16.40;99.90;;;;;;5045288;28;20057;-52
2023/07/19 00:32:21;;;;;;;6.57;3.00;;;16.40;99.90;;;;;;5040039;28;20044;-54
2023/07/19 00:34:47;;;;;;;5.35;2.92;;;16.40;99.90;;;;;;5037556;28;20037;-54
2023/07/19 00:37:13;;;;;;;6.47;2.95;;;16.30;99.90;;;;;;5057069;28;20416;-52
2023/07/19 00:39:38;;;;;;;5.50;3.15;;;16.30;99.90;;;;;;5034170;28;20064;-52
2023/07/19 00:42:04;;;;;;;9.10;3.20;;;16.30;99.90;;;;;;5036716;28;20640;-54
2023/07/19 00:44:30;;;;;;;10.60;2.97;;;16.20;99.90;;;;;;5041565;28;20036;-51
2023/07/19 00:46:58;;;;;;;7.90;2.88;;;16.30;99.90;;;;;;5043675;28;20051;-52
2023/07/19 00:49:24;;;;;;;7.28;3.53;;;16.30;99.90;;;;;;5041629;28;20566;-52
2023/07/19 00:51:49;;;;;;;10.13;3.63;;;16.20;99.90;;;;;;5033391;28;20041;-53
2023/07/19 00:54:16;;;;;;;9.88;3.78;;;16.30;99.90;;;;;;5034692;28;20078;-55
2023/07/19 00:56:43;;;;;;;7.20;3.80;;;16.30;99.90;;;;;;5035191;28;20436;-56
2023/07/19 00:59:11;;;;;;;7.40;3.30;;;16.20;99.90;;;;;;5028273;28;20801;-54
2023/07/19 01:01:37;;;;;;;6.20;3.20;;;16.20;99.90;;;;;;5033564;28;20030;-55
2023/07/19 01:04:03;;;;;;;6.10;3.40;;;16.20;99.90;;;;;;5035621;28;20492;-55
2023/07/19 01:06:29;;;;;;;6.38;3.08;;;16.00;99.90;;;;;;5040276;28;20480;-54
2023/07/19 01:08:55;;;;;;;7.05;3.10;;;16.00;99.90;;;;;;5041048;28;20044;-54
2023/07/19 01:11:20;;;;;;;8.02;3.75;;;16.30;99.90;;;;;;5041640;28;20458;-56
2023/07/19 01:13:55;;;;;;;7.85;3.20;;;16.30;99.90;;;;;;5042452;28;20400;-56
2023/07/19 01:16:22;;;;;;;6.78;3.60;;;16.20;99.90;;;;;;5035304;28;20033;-55
2023/07/19 01:18:49;;;;;;;8.77;3.70;;;16.30;99.90;;;;;;5038255;28;20291;-55
2023/07/19 01:21:14;;;;;;;8.20;3.60;;;16.20;99.90;;;;;;5034137;28;20665;-54
2023/07/19 01:23:40;;;;;;;8.00;3.35;;;16.00;99.90;;;;;;5034939;28;20045;-54
2023/07/19 01:26:06;;;;;;;7.20;3.72;;;16.00;99.90;;;;;;5037460;28;20120;-55
2023/07/19 01:28:32;;;;;;;9.23;3.05;;;15.90;99.90;;;;;;5035688;28;20106;-54
2023/07/19 01:31:03;;;;;;;8.25;3.63;;;15.80;99.90;;;;;;5041826;28;20033;-55
2023/07/19 01:33:29;;;;;;;4.53;3.20;;;15.30;99.90;;;;;;5035465;28;20050;-54
2023/07/19 01:35:55;;;;;;;7.00;3.22;;;15.80;99.90;;;;;;5037321;28;20470;-55
2023/07/19 01:38:20;;;;;;;8.80;3.50;;;15.90;99.90;;;;;;5032203;28;20037;-55
2023/07/19 01:40:46;;;;;;;8.23;3.65;;;15.90;99.90;;;;;;5027778;28;20261;-55
2023/07/19 01:43:12;;;;;;;7.13;3.75;;;15.90;99.90;;;;;;5042703;28;20064;-56
2023/07/19 01:45:37;;;;;;;7.82;3.13;;;15.80;99.90;;;;;;5038836;28;20401;-56
2023/07/19 01:48:03;;;;;;;7.68;3.50;;;15.80;99.90;;;;;;5043051;28;20086;-53
2023/07/19 01:50:29;;;;;;;5.88;3.28;;;16.00;99.90;;;;;;5039786;28;20606;-53
2023/07/19 01:52:55;;;;;;;7.18;3.42;;;15.80;99.90;;;;;;5028155;28;20572;-56
2023/07/19 01:55:20;;;;;;;7.40;3.70;;;15.80;99.90;;;;;;5030701;28;20128;-56
2023/07/19 01:57:46;;;;;;;12.02;3.97;;;15.70;99.90;;;;;;5038753;28;20136;-55
2023/07/19 02:00:11;;;;;;;6.78;3.53;;;15.60;99.90;;;;;;5039495;28;20034;-55
2023/07/19 02:02:37;;;;;;;10.85;3.97;;;15.80;99.90;;;;;;5042333;28;20566;-55
2023/07/19 02:05:03;;;;;;;8.88;3.75;;;15.70;99.90;;;;;;5039993;28;20029;-55
2023/07/19 02:07:28;;;;;;;7.82;3.70;;;15.80;99.90;;;;;;5041839;28;20033;-55
2023/07/19 02:09:54;;;;;;;6.78;3.97;;;15.70;99.90;;;;;;5035839;28;20034;-55
2023/07/19 02:12:20;;;;;;;8.88;3.80;;;15.70;99.90;;;;;;5039224;28;20041;-56
2023/07/19 02:14:45;;;;;;;8.50;3.65;;;15.60;99.90;;;;;;5041528;28;20561;-56
2023/07/19 02:17:11;;;;;;;9.55;4.45;;;15.60;99.90;;;;;;5037250;28;20029;-55
2023/07/19 02:19:36;;;;;;;7.85;4.00;;;15.50;99.90;;;;;;5038742;28;20037;-55
2023/07/19 02:22:05;;;;;;;9.20;4.40;;;15.50;99.90;;;;;;5028947;28;20037;-55
2023/07/19 02:24:31;;;;;;;9.38;3.75;;;15.50;99.90;;;;;;5037864;28;20055;-55
2023/07/19 02:26:56;;;;;;;8.60;4.28;;;15.60;99.90;;;;;;5042800;28;20037;-54
2023/07/19 02:29:22;;;;;;;10.45;4.20;;;15.50;99.90;;;;;;5041959;28;20093;-55
2023/07/19 02:31:48;;;;;;;10.98;3.70;;;15.20;99.90;;;;;;5032195;28;20038;-54
2023/07/19 02:34:18;;;;;;;11.45;4.10;;;15.40;99.90;;;;;;5038426;28;20025;-54
2023/07/19 02:36:44;;;;;;;8.93;4.38;;;15.40;99.90;;;;;;5033144;28;20033;-57
2023/07/19 02:39:09;;;;;;;10.45;4.88;;;15.40;99.90;;;;;;5040815;28;20079;-53
2023/07/19 02:41:35;;;;;;;8.23;4.68;;;15.10;99.90;;;;;;5042321;28;20045;-53
2023/07/19 02:44:00;;;;;;;8.60;4.05;;;15.20;99.90;;;;;;5040965;28;20245;-54
2023/07/19 02:46:26;;;;;;;7.57;3.65;;;15.60;99.90;;;;;;5039490;28;20040;-55
2023/07/19 02:48:51;;;;;;;6.22;3.55;;;15.50;99.90;;;;;;5046578;28;20629;-53
2023/07/19 02:51:17;;;;;;;8.90;3.85;;;15.30;99.90;;;;;;5038515;28;20037;-56
2023/07/19 02:53:43;;;;;;;9.32;4.22;;;15.20;99.90;;;;;;5047246;28;20116;-56
2023/07/19 02:56:08;;;;;;;6.68;4.07;;;15.10;99.90;;;;;;5032726;28;20367;-54
2023/07/19 02:58:34;;;;;;;8.50;3.83;;;15.20;99.90;;;;;;5044862;28;20113;-54
2023/07/19 03:00:59;;;;;;;5.78;3.78;;;15.30;99.90;;;;;;5041200;28;20033;-53
2023/07/19 03:03:25;;;;;;;6.82;3.80;;;15.20;99.90;;;;;;5040827;28;20036;-54
2023/07/19 03:05:51;;;;;;;6.28;3.85;;;15.10;99.90;;;;;;5037531;28;20037;-54
2023/07/19 03:08:16;;;;;;;7.00;3.60;;;15.20;99.90;;;;;;5041775;28;20127;-53
2023/07/19 03:10:42;;;;;;;5.40;3.05;;;15.20;99.90;;;;;;5046773;28;20041;-56
2023/07/19 03:13:09;;;;;;;7.80;3.83;;;15.00;99.90;;;;;;5044004;28;20036;-54
2023/07/19 03:15:34;;;;;;;6.72;3.50;;;15.10;99.90;;;;;;5044301;28;20569;-55
2023/07/19 03:18:01;;;;;;;6.97;3.35;;;15.00;99.90;;;;;;5045349;28;20079;-54
2023/07/19 03:20:27;;;;;;;5.03;3.13;;;15.00;99.90;;;;;;5019956;28;20033;-56
2023/07/19 03:22:54;;;;;;;7.53;3.13;;;15.10;99.90;;;;;;5016833;28;20033;-54
2023/07/19 03:25:19;;;;;;;6.30;3.30;;;15.10;99.90;;;;;;5019942;28;20034;-53
2023/07/19 03:27:45;;;;;;;7.72;3.75;;;15.10;99.90;;;;;;5022499;28;20360;-54
2023/07/19 03:30:11;;;;;;;6.60;3.38;;;15.10;99.90;;;;;;5020476;28;20034;-55
2023/07/19 03:32:37;;;;;;;6.70;3.42;;;15.10;99.90;;;;;;5020537;28;20065;-54
2023/07/19 03:35:03;;;;;;;5.72;3.10;;;15.10;99.90;;;;;;5035981;28;20519;-55
2023/07/19 03:37:29;;;;;;;5.35;3.03;;;15.20;99.90;;;;;;5040049;28;20507;-53
2023/07/19 03:39:54;;;;;;;7.50;3.67;;;15.20;99.90;;;;;;5034558;28;20030;-54
2023/07/19 03:42:20;;;;;;;5.43;3.50;;;15.30;99.90;;;;;;5034753;28;20037;-56
2023/07/19 03:44:46;;;;;;;7.55;3.42;;;15.40;99.90;;;;;;5037742;28;20052;-55
2023/07/19 03:47:11;;;;;;;7.40;3.63;;;15.30;99.90;;;;;;5033684;28;20065;-54
2023/07/19 03:49:37;;;;;;;6.47;3.30;;;15.40;99.90;;;;;;5039153;28;20045;-55
2023/07/19 03:52:03;;;;;;;6.40;3.60;;;15.40;99.90;;;;;;5044335;28;20148;-54
2023/07/19 03:54:28;;;;;;;7.47;4.15;;;15.30;99.90;;;;;;5035612;28;20467;-54
2023/07/19 03:56:54;;;;;;;7.35;3.47;;;15.40;99.90;;;;;;5037840;28;20029;-55
2023/07/19 03:59:19;;;;;;;8.02;3.30;;;15.60;99.90;;;;;;5038714;28;20048;-54
2023/07/19 04:01:45;;;;;;;5.57;3.28;;;15.50;99.90;;;;;;5036435;28;20033;-55
2023/07/19 04:04:10;;;;;;;5.63;3.83;;;15.70;99.90;;;;;;5043795;28;20087;-53
2023/07/19 04:06:36;;;;;;;6.32;3.53;;;15.50;99.90;;;;;;5030501;28;20044;-56
2023/07/19 04:09:02;;;;;;;5.57;3.70;;;15.50;99.90;;;;;;5043863;28;20037;-53
2023/07/19 04:11:28;;;;;;;8.90;3.20;;;15.50;99.90;;;;;;5032121;28;20107;-55
2023/07/19 04:13:54;;;;;;;6.45;3.40;;;15.60;99.90;;;;;;5039351;28;20038;-55
2023/07/19 04:16:20;;;;;;;9.40;3.85;;;15.60;99.90;;;;;;5041529;28;20492;-55
2023/07/19 04:18:46;;;;;;;10.52;3.83;;;15.70;99.90;;;;;;5042555;28;20025;-55
2023/07/19 04:21:12;;;;;;;7.22;3.67;;;15.70;99.90;;;;;;5042634;28;20566;-55
2023/07/19 04:23:37;;;;;;;6.22;3.90;;;15.60;99.90;;;;;;5028066;28;20567;-54
2023/07/19 04:26:05;;;;;;;6.30;3.70;;;15.90;99.90;;;;;;5038227;28;20033;-55
2023/07/19 04:28:31;;;;;;;7.60;4.30;;;16.00;99.90;;;;;;5039732;28;20442;-56
2023/07/19 04:30:56;;;;;;;10.40;4.10;;;16.20;99.90;;;;;;5034401;28;20033;-55
2023/07/19 04:33:22;;;;;;;7.38;4.07;;;16.60;99.90;;;;;;5040325;28;20318;-55
2023/07/19 04:35:49;;;;;;;9.55;4.70;;;16.30;99.90;;;;;;5037320;28;20492;-54
2023/07/19 04:38:15;;;;;;;6.82;4.13;;;16.30;99.90;;;;;;5041807;28;20545;-56
2023/07/19 04:40:41;;;;;;;6.70;4.03;;;16.60;99.90;;;;;;5031376;28;20029;-55
2023/07/19 04:43:07;;;;;;;7.80;4.65;;;16.50;99.90;;;;;;5034257;28;20095;-54
2023/07/19 04:45:32;;;;;;;6.20;4.15;;;16.00;99.90;;;;;;5035312;28;20041;-54
2023/07/19 04:47:58;;;;;;;10.43;4.78;;;16.40;99.90;;;;;;5030955;28;20036;-55
2023/07/19 04:50:24;;;;;;;9.40;5.15;;;16.50;99.90;;;;;;5036459;28;20039;-54
2023/07/19 04:52:51;;;;;;;9.40;4.40;;;16.60;99.90;;;;;;5042422;28;20651;-54
2023/07/19 04:55:16;;;;;;;9.02;4.88;;;16.60;99.90;;;;;;5031814;28;20040;-54
2023/07/19 04:57:42;;;;;;;9.15;4.75;;;16.60;99.90;;;;;;5043947;28;20123;-56
2023/07/19 05:00:11;;;;;;;8.73;5.30;;;16.60;99.90;;;;;;5042501;28;20029;-55
2023/07/19 05:02:38;;;;;;;6.85;4.85;;;16.60;99.90;;;;;;5038377;28;20039;-51
2023/07/19 05:05:05;;;;;;;8.15;5.15;;;16.70;99.90;;;;;;5042468;28;20036;-52
2023/07/19 05:07:33;;;;;;;7.72;4.82;;;16.50;99.90;;;;;;5033894;28;20029;-54
2023/07/19 05:10:00;;;;;;;8.55;5.07;;;16.60;99.90;;;;;;5028577;28;20076;-52
2023/07/19 05:12:26;;;;;;;8.23;5.25;;;16.70;99.90;;;;;;5035425;28;20037;-53
2023/07/19 05:14:51;;;;;;;10.35;5.88;;;16.70;99.90;;;;;;5035177;28;20078;-53
2023/07/19 05:17:17;;;;;;;10.95;5.38;;;16.90;99.90;;;;;;5036812;28;20037;-53
2023/07/19 05:19:42;;;;;;;10.20;5.35;;;16.90;99.90;;;;;;5032147;28;20039;-51
2023/07/19 05:22:08;;;;;;;7.65;5.43;;;17.00;99.90;;;;;;5033187;28;20053;-54
2023/07/19 05:24:33;;;;;;;7.68;5.75;;;17.00;99.90;;;;;;5038025;28;20494;-54
2023/07/19 05:27:00;;;;;;;11.00;5.80;;;17.10;99.90;;;;;;5030251;28;20380;-55
2023/07/19 05:29:25;;;;;;;10.05;5.60;;;17.40;99.90;;;;;;5032604;28;20147;-56
2023/07/19 05:31:51;;;;;;;11.93;5.90;;;17.40;99.90;;;;;;5038404;28;20087;-55
2023/07/19 05:34:16;;;;;;;8.57;6.00;;;17.00;99.90;;;;;;5033163;28;20068;-53
2023/07/19 05:36:42;;;;;;;9.48;5.53;;;17.50;99.90;;;;;;5040582;28;20526;-52
2023/07/19 05:39:08;;;;;;;10.55;5.35;;;17.40;99.90;;;;;;5037774;28;20049;-53
2023/07/19 05:41:33;;;;;;;10.45;5.80;;;17.30;99.90;;;;;;5040200;28;20041;-54
2023/07/19 05:43:59;;;;;;;11.48;5.43;;;17.30;99.90;;;;;;5032305;28;20727;-52
2023/07/19 05:46:24;;;;;;;10.60;5.53;;;17.40;99.90;;;;;;5034977;28;20056;-54
2023/07/19 05:48:50;;;;;;;11.40;5.72;;;17.60;99.90;;;;;;5042789;28;20037;-53
2023/07/19 05:51:16;;;;;;;8.23;5.60;;;17.60;99.90;;;;;;5036052;28;20041;-52
2023/07/19 05:53:41;;;;;;;11.65;6.05;;;17.70;99.90;;;;;;5040085;28;20504;-52
2023/07/19 05:56:07;;;;;;;10.73;6.28;;;17.60;99.90;;;;;;5034948;28;20037;-54
2023/07/19 05:58:33;;;;;;;12.60;6.00;;;17.80;99.90;;;;;;5035763;28;20546;-53
2023/07/19 06:00:58;;;;;;;10.00;5.90;;;17.70;99.90;;;;;;5041557;28;20113;-53
2023/07/19 06:03:24;;;;;;;9.98;6.00;;;17.90;99.90;;;;;;5034580;28;20453;-53
2023/07/19 06:05:49;;;;;;;11.45;6.57;;;17.90;99.90;;;;;;5036668;28;20056;-55
2023/07/19 06:08:15;;;;;;;9.25;5.93;;;18.00;99.90;;;;;;5036390;28;20059;-54
2023/07/19 06:10:41;;;;;;;8.57;6.25;;;18.40;99.90;;;;;;5041018;28;20033;-54
2023/07/19 06:13:06;;;;;;;10.88;6.30;;;18.40;99.90;;;;;;5036751;28;20476;-54
2023/07/19 06:15:33;;;;;;;13.88;6.78;;;18.50;99.90;;;;;;5031333;28;20049;-53
2023/07/19 06:18:00;;;;;;;15.77;7.15;;;18.60;99.90;;;;;;5037818;28;20361;-52
2023/07/19 06:20:26;;;;;;;11.93;6.88;;;18.60;99.90;;;;;;5040638;28;20037;-54
2023/07/19 06:22:51;;;;;;;12.75;6.60;;;18.60;99.90;;;;;;5035238;28;20041;-54
2023/07/19 06:25:17;;;;;;;12.65;8.35;;;18.60;99.90;;;;;;5039638;28;20064;-53
2023/07/19 06:27:43;;;;;;;13.13;7.75;;;18.50;99.90;;;;;;5041297;28;20043;-53
2023/07/19 06:30:12;;;;;;;15.38;7.95;;;18.50;99.90;;;;;;5041522;28;20033;-54
2023/07/19 06:32:38;;;;;;;17.10;7.85;;;18.50;99.90;;;;;;5039356;28;20061;-52
2023/07/19 06:35:04;;;;;;;16.92;8.32;;;18.60;99.90;;;;;;5038219;28;20068;-54
2023/07/19 06:37:32;;;;;;;14.82;8.60;;;18.60;99.90;;;;;;5033003;28;20029;-53
2023/07/19 06:39:57;;;;;;;15.55;8.98;;;18.80;99.90;;;;;;5036189;28;20037;-53
2023/07/19 06:42:23;;;;;;;18.15;9.15;;;18.80;99.90;;;;;;5035302;28;20033;-54
2023/07/19 06:44:49;;;;;;;18.73;9.00;;;19.00;99.90;;;;;;5041597;28;20439;-53
2023/07/19 06:47:15;;;;;;;12.93;8.45;;;19.00;99.90;;;;;;5044571;28;20451;-54
2023/07/19 06:49:41;;;;;;;15.30;8.43;;;19.20;99.90;;;;;;5042146;28;20041;-54
2023/07/19 06:52:07;;;;;;;18.33;8.40;;;19.20;99.90;;;;;;5042798;28;20037;-54
2023/07/19 06:54:33;;;;;;;15.45;8.20;;;19.30;99.90;;;;;;5046036;28;20611;-51
2023/07/19 06:56:59;;;;;;;12.38;7.13;;;19.20;99.90;;;;;;5040362;28;20037;-54
2023/07/19 06:59:26;;;;;;;12.80;7.78;;;19.00;99.90;;;;;;5035359;28;20447;-53
2023/07/19 07:01:52;;;;;;;15.88;7.78;;;19.20;99.90;;;;;;5033018;28;20037;-54
2023/07/19 07:04:17;;;;;;;16.35;7.68;;;19.20;99.90;;;;;;5036824;28;20412;-54
2023/07/19 07:06:43;;;;;;;13.23;7.93;;;19.40;99.90;;;;;;5044343;28;20041;-53
2023/07/19 07:09:08;;;;;;;15.18;7.93;;;19.40;99.90;;;;;;5036416;28;20037;-54
2023/07/19 07:11:34;;;;;;;14.18;7.63;;;19.40;99.90;;;;;;5046042;28;20025;-53
2023/07/19 07:14:00;;;;;;;12.40;7.60;;;19.50;99.90;;;;;;5033638;28;20139;-52
2023/07/19 07:16:25;;;;;;;11.75;7.13;;;19.50;99.90;;;;;;5030505;28;20040;-54
2023/07/19 07:18:51;;;;;;;10.32;7.13;;;19.60;99.90;;;;;;5040224;28;20395;-52
2023/07/19 07:21:17;;;;;;;12.55;7.15;;;19.60;99.90;;;;;;5043149;28;20043;-54
2023/07/19 07:23:42;;;;;;;14.35;7.15;;;19.40;99.90;;;;;;5035152;28;20056;-53
2023/07/19 07:26:08;;;;;;;12.45;7.00;;;19.50;99.90;;;;;;5029921;28;20784;-55
2023/07/19 07:28:33;;;;;;;14.43;6.97;;;19.60;99.90;;;;;;5040669;28;20072;-53
2023/07/19 07:31:06;;;;;;;15.48;6.93;;;19.70;99.90;;;;;;5034876;28;20037;-54
2023/07/19 07:33:31;;;;;;;10.07;6.55;;;19.80;99.90;;;;;;5030506;28;20040;-52
2023/07/19 07:35:57;;;;;;;14.25;6.07;;;20.00;99.90;;;;;;5036078;28;20048;-53
2023/07/19 07:38:23;;;;;;;14.35;6.20;;;20.10;99.90;;;;;;5030698;28;20033;-53
2023/07/19 07:40:48;;;;;;;15.80;6.47;;;20.20;99.90;;;;;;5034748;28;20124;-55
2023/07/19 07:43:14;;;;;;;13.63;6.13;;;20.40;99.90;;;;;;5036719;28;20037;-55
2023/07/19 07:45:39;;;;;;;12.10;6.60;;;20.50;99.90;;;;;;5034358;28;20140;-54
2023/07/19 07:48:05;;;;;;;17.88;8.10;;;20.50;99.90;;;;;;5033041;28;20084;-54
2023/07/19 07:50:33;;;;;;;14.85;7.43;;;20.50;99.90;;;;;;5039011;28;20033;-52
2023/07/19 07:52:58;;;;;;;17.08;7.32;;;20.50;99.90;;;;;;5037081;28;20145;-54
2023/07/19 07:55:24;;;;;;;12.25;7.45;;;20.50;99.90;;;;;;5036855;28;20471;-54
2023/07/19 07:57:50;;;;;;;15.70;7.90;;;19.50;99.90;;;;;;5033840;28;21043;-52
2023/07/19 08:00:17;;;;;;;17.17;6.50;;;20.40;99.90;;;;;;5039473;28;20439;-55
2023/07/19 08:02:43;;;;;;;10.60;5.53;;;20.40;99.90;;;;;;5041803;28;20452;-54
2023/07/19 08:05:09;;;;;;;13.30;5.00;;;20.50;99.90;;;;;;5037983;28;20037;-52
2023/07/19 08:07:35;;;;;;;14.48;4.97;;;20.60;99.90;;;;;;5034058;28;20056;-55
2023/07/19 08:10:01;;;;;;;10.65;4.68;;;20.50;99.90;;;;;;5038276;28;20068;-52
2023/07/19 08:12:26;;;;;;;10.40;4.40;;;20.50;99.90;;;;;;5037848;28;20400;-54
2023/07/19 08:14:52;;;;;;;18.50;6.22;;;20.50;99.90;;;;;;5042263;28;20037;-54
2023/07/19 08:17:17;;;;;;;11.20;5.25;;;20.60;99.90;;;;;;5041875;28;20404;-54
2023/07/19 08:19:43;;;;;;;12.43;5.30;;;20.70;99.90;;;;;;5041595;28;20045;-54
2023/07/19 08:22:24;;;;;;;12.48;5.00;;;20.90;99.90;;;;;;5037211;28;20037;-54
2023/07/19 08:24:50;;;;;;;10.93;4.68;;;21.00;99.90;;;;;;5039974;28;20125;-54
2023/07/19 08:27:15;;;;;;;10.98;5.50;;;20.90;99.90;;;;;;5039710;28;20060;-52
2023/07/19 08:29:41;;;;;;;14.27;5.32;;;20.70;99.90;;;;;;5038829;28;20128;-54
2023/07/19 08:32:07;;;;;;;12.95;5.25;;;20.70;99.90;;;;;;5035463;28;20079;-55
2023/07/19 08:34:32;;;;;;;11.38;4.95;;;20.80;99.90;;;;;;5029343;28;20593;-53
2023/07/19 08:36:58;;;;;;;9.93;4.93;;;21.00;99.90;;;;;;5031280;28;20353;-54
2023/07/19 08:39:23;;;;;;;18.13;5.70;;;21.20;99.90;;;;;;5038973;28;20048;-54
2023/07/19 08:41:50;;;;;;;11.32;4.57;;;21.40;99.90;;;;;;5035637;28;20044;-54
2023/07/19 08:44:16;;;;;;;7.20;2.92;;;21.50;99.90;;;;;;5035906;28;20037;-52
2023/07/19 08:46:43;;;;;;;8.90;3.40;;;21.40;99.90;;;;;;5038366;28;20087;-54
2023/07/19 08:49:09;;;;;;;11.43;4.25;;;21.40;99.90;;;;;;5036288;28;20203;-53
2023/07/19 08:51:38;;;;;;;5.85;2.20;;;21.40;99.90;;;;;;5039126;28;20144;-53
2023/07/19 08:54:03;;;;;;;6.80;2.10;;;21.50;99.90;;;;;;5041748;28;20123;-56
2023/07/19 08:56:31;;;;;;;6.45;2.40;;;21.50;99.90;;;;;;5035299;28;20136;-53
2023/07/19 08:58:56;;;;;;;6.30;2.40;;;21.50;99.90;;;;;;5038376;28;20037;-55
2023/07/19 09:01:22;;;;;;;9.27;3.63;;;21.50;99.90;;;;;;5035493;28;20041;-55
2023/07/19 09:03:48;;;;;;;11.00;3.58;;;21.50;99.90;;;;;;5042095;28;20037;-54
2023/07/19 09:06:30;;;;;;;7.20;3.50;;;21.60;99.90;;;;;;5036436;28;20420;-52
2023/07/19 09:08:55;;;;;;;11.85;3.45;;;21.80;99.90;;;;;;5037928;28;20033;-53
2023/07/19 09:11:24;;;;;;;8.80;3.30;;;22.20;99.90;;;;;;5038523;28;21555;-55
2023/07/19 09:13:54;;;;;;;6.00;2.35;;;22.10;99.90;;;;;;5038166;28;20044;-54
2023/07/19 09:16:27;;;;;;;6.60;2.10;;;22.00;99.90;;;;;;5039904;28;20040;-53
2023/07/19 09:18:56;;;;;;;4.80;2.42;;;21.90;99.90;;;;;;5038902;28;20711;-55
2023/07/19 09:21:37;;;;;;;6.65;2.35;;;21.90;99.90;;;;;;5041520;28;20515;-54
2023/07/19 09:24:04;;;;;;;4.72;2.50;;;21.90;99.90;;;;;;5038003;28;20497;-55
2023/07/19 09:26:53;;;;;;;6.38;2.30;;;21.90;99.90;;;;;;5037972;28;20043;-51
2023/07/19 09:29:23;;;;;;;7.95;2.60;;;21.90;99.90;;;;;;5034928;28;20075;-55
2023/07/19 09:31:53;;;;;;;4.95;2.53;;;22.00;99.90;;;;;;5036880;28;20041;-54
2023/07/19 09:34:25;;;;;;;4.57;2.33;;;22.00;99.90;;;;;;5036361;28;20041;-53
2023/07/19 09:36:51;;;;;;;4.40;2.00;;;22.10;99.90;;;;;;5038405;28;20519;-55
2023/07/19 09:39:17;;;;;;;5.07;1.65;;;22.00;99.90;;;;;;5030758;28;20132;-55
2023/07/19 09:41:47;;;;;;;4.65;1.88;;;22.10;99.90;;;;;;5034358;28;20568;-54
2023/07/19 09:44:15;;;;;;;4.63;1.90;;;22.10;99.90;;;;;;5036636;28;20528;-54
2023/07/19 09:46:43;;;;;;;4.70;2.30;;;22.20;99.90;;;;;;5039073;28;20524;-54
2023/07/19 09:49:09;;;;;;;3.25;2.05;;;;;;;;;;5027564;28;20539;-54
2023/07/19 09:51:38;;;;;;;5.60;2.47;;;22.50;99.90;;;;;;5036471;28;20036;-54
2023/07/19 09:54:13;;;;;;;3.92;2.55;;;22.50;99.90;;;;;;5038453;28;20120;-54
2023/07/19 09:56:40;;;;;;;11.55;3.47;;;22.60;99.90;;;;;;5028853;28;20600;-53
2023/07/19 09:59:11;;;;;;;8.57;3.20;;;22.40;99.90;;;;;;5036269;28;20477;-53
2023/07/19 10:01:37;;;;;;;12.00;3.55;;;22.40;99.90;;;;;;5033769;28;20416;-55
2023/07/19 10:04:23;;;;;;;11.95;3.30;;;22.30;99.90;;;;;;5032559;28;20519;-54
2023/07/19 10:07:01;;;;;;;11.55;3.40;;;22.40;99.90;;;;;;5036970;28;20053;-54
2023/07/19 10:09:40;;;;;;;9.00;3.35;;;22.40;99.90;;;;;;5037469;28;20395;-53
2023/07/19 10:12:25;;;;;;;10.43;3.25;;;22.60;99.90;;;;;;5041208;28;20037;-55
2023/07/19 10:14:59;;;;;;;9.88;4.18;;;22.80;99.90;;;;;;5042084;28;20033;-55
2023/07/19 10:17:25;;;;;;;10.27;3.50;;;23.00;99.90;;;;;;5035955;28;20049;-51
2023/07/19 10:20:03;;;;;;;10.52;3.25;;;23.20;99.90;;;;;;5041149;28;20044;-54
2023/07/19 10:23:04;;;;;;;10.05;3.40;;;23.40;99.90;;;;;;5033764;28;20060;-55
2023/07/19 10:25:36;;;;;;;10.23;3.22;;;23.40;99.90;;;;;;5039010;28;20116;-53
2023/07/19 10:28:11;;;;;;;11.75;3.63;;;23.50;99.90;;;;;;5034876;28;20484;-53
2023/07/19 10:30:49;;;;;;;8.35;3.45;;;23.40;99.90;;;;;;5039830;28;20041;-54
2023/07/19 10:33:16;;;;;;;10.73;3.60;;;23.40;99.90;;;;;;5040889;28;20041;-54
2023/07/19 10:35:42;;;;;;;11.25;3.70;;;23.40;99.90;;;;;;5040916;28;20033;-54
2023/07/19 10:38:17;;;;;;;13.80;3.72;;;23.40;99.90;;;;;;5034299;28;20094;-53
2023/07/19 10:40:46;;;;;;;11.85;3.72;;;23.50;99.90;;;;;;5040471;28;20242;-54
2023/07/19 10:43:12;;;;;;;11.75;3.42;;;23.50;99.90;;;;;;5041509;28;20033;-54
2023/07/19 10:45:38;;;;;;;10.93;3.75;;;23.50;99.90;;;;;;5037653;28;20045;-55
2023/07/19 10:48:04;;;;;;;12.77;3.78;;;23.60;99.90;;;;;;5037573;28;20025;-54
2023/07/19 10:50:30;;;;;;;11.38;4.25;;;23.50;99.90;;;;;;5025349;28;20098;-52
2023/07/19 10:52:56;;;;;;;11.40;3.50;;;23.50;99.90;;;;;;5037445;28;20033;-52
2023/07/19 10:55:21;;;;;;;12.57;3.88;;;23.50;99.90;;;;;;5038740;28;20048;-54
2023/07/19 10:57:47;;;;;;;10.48;4.38;;;23.30;99.90;;;;;;5037948;28;20355;-55
2023/07/19 11:00:13;;;;;;;11.07;3.72;;;23.30;99.90;;;;;;5039659;28;20043;-54
2023/07/19 11:02:40;;;;;;;12.80;3.90;;;23.30;99.90;;;;;;5039356;28;20033;-53
2023/07/19 11:05:09;;;;;;;10.93;3.75;;;23.30;99.90;;;;;;5037646;28;20511;-53
2023/07/19 11:07:35;;;;;;;10.45;4.00;;;23.30;99.90;;;;;;5035666;28;20037;-54
2023/07/19 11:10:02;;;;;;;15.38;3.67;;;23.40;99.90;;;;;;5046401;28;20119;-54
2023/07/19 11:12:31;;;;;;;12.27;3.60;;;23.50;99.90;;;;;;5043070;28;20033;-55
2023/07/19 11:15:00;;;;;;;12.95;3.70;;;23.60;99.90;;;;;;5043676;28;20489;-53
2023/07/19 11:17:29;;;;;;;8.82;3.63;;;23.60;99.90;;;;;;5038683;28;20400;-54
2023/07/19 11:19:57;;;;;;;10.48;3.22;;;23.50;99.90;;;;;;5041698;28;20044;-53
2023/07/19 11:22:25;;;;;;;13.80;4.20;;;23.60;99.90;;;;;;5042066;28;20044;-53
2023/07/19 11:24:52;;;;;;;11.38;3.70;;;23.80;99.90;;;;;;5041416;28;20124;-54
2023/07/19 11:27:18;;;;;;;14.07;3.83;;;23.70;99.90;;;;;;5039813;28;20033;-53
2023/07/19 11:29:49;;;;;;;11.05;3.35;;;23.80;99.90;;;;;;5040748;28;20086;-53
2023/07/19 11:32:20;;;;;;;9.52;3.17;;;24.20;99.90;;;;;;5036449;28;20044;-53
2023/07/19 11:34:54;;;;;;;8.77;3.33;;;24.30;99.90;;;;;;5036982;28;20370;-53
2023/07/19 11:37:37;;;;;;;11.65;4.20;;;24.70;99.90;;;;;;5036595;28;20039;-50
2023/07/19 11:40:09;;;;;;;7.88;3.42;;;24.70;99.90;;;;;;5037862;28;20055;-52
2023/07/19 11:42:46;;;;;;;11.77;3.90;;;24.90;99.90;;;;;;5037482;28;20049;-54
2023/07/19 11:45:31;;;;;;;7.22;3.10;;;25.10;99.90;;;;;;5042440;28;20049;-54
2023/07/19 11:48:01;;;;;;;7.72;2.78;;;25.00;99.90;;;;;;5037964;28;20098;-53
2023/07/19 11:50:27;;;;;;;6.30;2.75;;;24.80;99.90;;;;;;5032052;28;20124;-52
2023/07/19 11:53:01;;;;;;;7.95;3.50;;;24.80;99.90;;;;;;5038686;28;20132;-52
2023/07/19 11:55:29;;;;;;;10.82;3.40;;;24.60;99.90;;;;;;5032049;28;20026;-53
2023/07/19 11:58:02;;;;;;;7.82;3.00;;;24.50;99.90;;;;;;5038518;28;20634;-53
2023/07/19 12:00:28;;;;;;;;;;;24.60;99.90;;;;;;5020895;28;20037;-55
2023/07/19 12:02:54;;;;;;;6.85;2.90;;;24.40;99.90;;;;;;5031474;28;19913;-54
2023/07/19 12:05:22;;;;;;;11.40;3.33;;;24.40;99.90;;;;;;5034914;28;20051;-55
2023/07/19 12:07:51;;;;;;;6.53;2.92;;;24.30;99.90;;;;;;5037267;28;20040;-54
2023/07/19 12:10:21;;;;;;;7.70;3.03;;;24.50;99.90;;;;;;5030887;28;20645;-55
2023/07/19 12:12:48;;;;;;;7.07;2.70;;;24.50;99.90;;;;;;5038513;28;20115;-55
2023/07/19 12:15:15;;;;;;;11.23;3.05;;;24.50;99.90;;;;;;5039741;28;20563;-55
2023/07/19 12:17:41;;;;;;;6.00;3.00;;;24.60;99.90;;;;;;5039619;28;20164;-54
2023/07/19 12:20:14;;;;;;;10.30;5.25;;;24.40;99.90;;;;;;5028880;28;20140;-53
2023/07/19 12:22:41;;;;;;;11.85;3.15;;;24.20;99.90;;;;;;5043292;28;20029;-54
2023/07/19 12:25:08;;;;;;;7.30;3.13;;;24.10;99.90;;;;;;5041050;28;20538;-53
2023/07/19 12:27:33;;;;;;;7.32;3.15;;;24.20;99.90;;;;;;5035158;28;20546;-53
2023/07/19 12:29:59;;;;;;;9.00;3.10;;;24.10;99.90;;;;;;5043326;28;20037;-54
2023/07/19 12:32:26;;;;;;;5.28;2.40;;;24.10;99.90;;;;;;5042415;28;20041;-54
2023/07/19 12:34:51;;;;;;;6.35;2.38;;;24.20;99.90;;;;;;5041637;28;20479;-53
2023/07/19 12:37:17;;;;;;;5.80;2.13;;;24.30;99.90;;;;;;5043602;28;20041;-54
2023/07/19 12:39:43;;;;;;;8.10;2.40;;;24.30;99.90;;;;;;5037602;28;20033;-53
2023/07/19 12:42:10;;;;;;;4.90;2.00;;;24.40;99.90;;;;;;5038364;28;20037;-53